createdAt,value
2022-10-17T00:05:42.793Z,101830.03
2022-10-17T00:13:17.755Z,101819.41
2022-10-17T00:20:52.695Z,101819.41
2022-10-17T00:28:26.443Z,101825.66
2022-10-17T00:36:06.406Z,101815.81
2022-10-17T00:44:00.360Z,101817.69
2022-10-17T00:51:40.115Z,101828.53
2022-10-17T00:59:17.168Z,101830.34
2022-10-17T01:06:52.349Z,101817.91
2022-10-17T01:14:34.292Z,101817.91
2022-10-17T01:22:13.590Z,101820.59
2022-10-17T01:30:04.980Z,101805.28
2022-10-17T01:37:47.591Z,101804.41
2022-10-17T01:45:28.744Z,101801.66
2022-10-17T01:53:08.926Z,101799.69
2022-10-17T02:00:46.453Z,101806.75
2022-10-17T02:08:29.353Z,101799.50
2022-10-17T02:16:14.966Z,101799.34
2022-10-17T02:23:55.194Z,101793.91
2022-10-17T02:31:34.816Z,101792.97
2022-10-17T02:39:12.532Z,101796.50
2022-10-17T02:46:53.328Z,101784.88
2022-10-17T02:54:35.987Z,101766.47
2022-10-17T03:02:09.753Z,101781.78
2022-10-17T03:09:44.674Z,101788.97
2022-10-17T03:17:19.631Z,101780.50
2022-10-17T03:24:54.834Z,101754.75
2022-10-17T03:32:28.441Z,101775.13
2022-10-17T03:40:03.618Z,101760.75
2022-10-17T03:47:37.346Z,101752.63
2022-10-17T03:55:12.699Z,101757.94
2022-10-17T04:02:46.379Z,101757.22
2022-10-17T04:10:21.462Z,101741.22
2022-10-17T04:17:55.491Z,101735.94
2022-10-17T04:25:33.419Z,101750.22
2022-10-17T04:33:10.078Z,101742.19
2022-10-17T04:40:45.298Z,101744.72
2022-10-17T04:48:19.141Z,101750.03
2022-10-17T04:55:54.422Z,101752.66
2022-10-17T05:03:28.253Z,101744.50
2022-10-17T05:11:03.667Z,101747.13
2022-10-17T05:18:37.777Z,101752.25
2022-10-17T05:26:13.648Z,101746.91
2022-10-17T05:33:47.563Z,101754.91
2022-10-17T05:41:22.677Z,101753.94
2022-10-17T05:48:56.481Z,101758.38
2022-10-17T05:56:31.480Z,101761.06
2022-10-17T06:04:05.057Z,101777.88
2022-10-17T06:11:40.336Z,101787.50
2022-10-17T06:19:14.056Z,101787.75
2022-10-17T06:26:50.957Z,101811.16
2022-10-17T06:34:24.685Z,101810.56
2022-10-17T06:41:59.971Z,101807.06
2022-10-17T06:49:34.437Z,101809.22
2022-10-17T06:57:09.560Z,101814.81
2022-10-17T07:04:43.225Z,101817.63
2022-10-17T07:12:18.351Z,101824.28
2022-10-17T07:19:51.977Z,101838.06
2022-10-17T07:27:28.375Z,101837.41
2022-10-17T07:35:02.389Z,101835.94
2022-10-17T07:50:18.322Z,101836.88
2022-10-17T07:57:53.467Z,101831.41
2022-10-17T08:05:27.521Z,101837.34
2022-10-17T08:13:02.966Z,101838.72
2022-10-17T08:20:36.958Z,101842.00
2022-10-17T08:28:12.206Z,101838.75
2022-10-17T08:35:45.919Z,101827.22
2022-10-17T08:43:35.362Z,101827.38
2022-10-17T08:51:16.566Z,101830.19
2022-10-17T08:58:51.748Z,101826.59
2022-10-17T09:06:30.118Z,101840.97
2022-10-17T09:14:21.838Z,101835.50
2022-10-17T09:22:00.834Z,101833.56
2022-10-17T09:29:40.270Z,101831.53
2022-10-17T09:37:18.302Z,101819.75
2022-10-17T09:45:04.739Z,101819.78
2022-10-17T09:52:47.569Z,101805.16
2022-10-17T10:00:25.596Z,101810.59
2022-10-17T10:08:04.425Z,101813.25
2022-10-17T10:15:42.124Z,101814.19
2022-10-17T10:23:18.461Z,101811.41
2022-10-17T10:30:55.527Z,101811.31
2022-10-17T10:38:30.275Z,101811.28
2022-10-17T10:46:16.758Z,101801.91
2022-10-17T10:53:56.679Z,101792.69
2022-10-17T11:01:40.007Z,101778.78
2022-10-17T11:09:24.545Z,101788.50
2022-10-17T11:17:10.026Z,101779.19
2022-10-17T11:24:49.668Z,101764.63
2022-10-17T11:32:31.527Z,101772.78
2022-10-17T11:40:18.091Z,101773.41
2022-10-17T11:48:01.905Z,101771.41
2022-10-17T11:55:38.344Z,101775.00
2022-10-17T12:03:29.700Z,101773.78
2022-10-17T12:11:11.282Z,101766.13
2022-10-17T12:18:47.551Z,101754.84
2022-10-17T12:26:27.678Z,101744.00
2022-10-17T12:34:05.812Z,101735.41
2022-10-17T12:42:00.601Z,101732.97
2022-10-17T12:49:46.583Z,101746.28
2022-10-17T12:57:26.259Z,101743.28
2022-10-17T13:05:08.231Z,101729.97
2022-10-17T13:12:41.918Z,101727.19
2022-10-17T13:20:31.898Z,101738.28
2022-10-17T13:28:12.820Z,101731.69
2022-10-17T13:36:05.401Z,101731.88
2022-10-17T13:43:39.855Z,101734.72
2022-10-17T13:51:14.886Z,101733.69
2022-10-17T13:58:50.586Z,101743.31
2022-10-17T14:06:27.194Z,101737.84
2022-10-17T14:14:02.736Z,101738.66
2022-10-17T14:21:44.408Z,101741.47
2022-10-17T14:29:26.378Z,101757.19
2022-10-17T14:37:02.923Z,101754.56
2022-10-17T14:44:37.433Z,101753.81
2022-10-17T14:52:32.890Z,101754.03
2022-10-17T15:00:07.136Z,101757.00
2022-10-17T15:07:43.101Z,101767.25
2022-10-17T15:15:16.893Z,101775.59
2022-10-17T15:22:51.879Z,101774.97
2022-10-17T15:30:27.546Z,101767.06
2022-10-17T15:38:02.651Z,101773.63
2022-10-17T15:45:36.485Z,101770.31
2022-10-17T15:53:12.791Z,101776.84
2022-10-17T16:00:46.964Z,101779.72
2022-10-17T16:08:22.005Z,101779.94
2022-10-17T16:15:55.624Z,101781.03
2022-10-17T16:23:32.218Z,101777.63
2022-10-17T16:31:06.198Z,101781.47
2022-10-17T16:38:41.328Z,101792.50
2022-10-17T16:46:15.119Z,101792.69
2022-10-17T16:54:02.004Z,101789.19
2022-10-17T17:01:35.795Z,101808.25
2022-10-17T17:09:11.406Z,101792.16
2022-10-17T17:16:45.210Z,101797.59
2022-10-17T17:24:21.922Z,101811.19
2022-10-17T17:31:55.593Z,101814.84
2022-10-17T17:39:31.702Z,101815.78
2022-10-17T17:47:05.379Z,101825.72
2022-10-17T17:54:41.099Z,101823.88
2022-10-17T18:02:14.990Z,101840.09
2022-10-17T18:09:51.126Z,101836.47
2022-10-17T18:17:25.029Z,101845.44
2022-10-17T18:25:01.235Z,101840.00
2022-10-17T18:32:35.061Z,101849.88
2022-10-17T18:40:11.198Z,101863.34
2022-10-17T18:47:45.292Z,101870.41
2022-10-17T18:55:20.884Z,101871.25
2022-10-17T19:02:54.731Z,101878.41
2022-10-17T19:10:29.718Z,101892.69
2022-10-17T19:18:03.745Z,101902.50
2022-10-17T19:25:38.930Z,101904.19
2022-10-17T19:33:12.571Z,101911.31
2022-10-17T19:40:48.460Z,101910.31
2022-10-17T19:48:22.231Z,101915.63
2022-10-17T19:55:58.008Z,101908.28
2022-10-17T20:03:31.723Z,101920.75
2022-10-17T20:11:08.681Z,101917.13
2022-10-17T20:18:43.254Z,101929.56
2022-10-17T20:34:16.353Z,101944.47
2022-10-17T20:41:51.854Z,101950.66
2022-10-17T20:49:26.014Z,101959.56
2022-10-17T20:57:04.031Z,101969.41
2022-10-17T21:04:47.202Z,101973.81
2022-10-17T21:12:31.402Z,101972.81
2022-10-17T21:20:11.936Z,101978.09
2022-10-17T21:27:46.907Z,101986.00
2022-10-17T21:35:20.790Z,101985.88
2022-10-17T21:42:57.056Z,101983.94
2022-10-17T21:50:31.868Z,101994.63
2022-10-17T21:58:07.144Z,101996.41
2022-10-17T22:05:40.850Z,102008.84
2022-10-17T22:13:16.248Z,102025.91
2022-10-17T22:20:49.848Z,102011.44
2022-10-17T22:28:26.039Z,102023.97
2022-10-17T22:35:59.861Z,102025.72
2022-10-17T22:43:34.892Z,102031.03
2022-10-17T22:51:08.864Z,102033.66
2022-10-17T22:58:44.064Z,102019.28
2022-10-17T23:06:18.018Z,102034.50
2022-10-17T23:13:53.084Z,102035.34
2022-10-17T23:21:26.659Z,102031.78
2022-10-17T23:29:01.809Z,102040.75
2022-10-17T23:36:35.604Z,102042.53
2022-10-17T23:44:11.466Z,102039.84
2022-10-17T23:51:45.117Z,102030.91
2022-10-17T23:59:20.183Z,102042.63
